Flight Track Log - Related Links

Times and Time Zones

All times are in EDT time to prevent confusion due to time zone crossing. See the SKW6492 flight status page for this flight to view local times or setup timezone preferences in your user account.

Time Position Orientation Groundspeed Altitude Reporting Facility
EDT Latitude Longitude Course Direction KTS MPH feet Rate Location/Type
Mon 09:36:10 PM 39.8833 -104.5500 348° North 217 250 7,800  Level Denver TRACON
Mon 09:37:10 PM 39.9167 -104.4500 66° East 276 318 8,700 1,368 Climbing Denver TRACON
Mon 09:38:00 PM 40.2708 -104.8029 347° North  Level FlightAware Approximate
Mon 09:38:04 PM 39.9833 -104.4333 11° North 306 352 10,400  Level Denver TRACON
Mon 09:39:00 PM 40.3763 -104.8365 346° North  Level FlightAware Approximate
Mon 09:39:10 PM 40.0667 -104.4333 360° North 309 356 12,700  Level Denver TRACON
Mon 09:40:00 PM 40.4815 -104.8716 346° North  Level FlightAware Approximate
Mon 09:40:14 PM 40.1606 -104.4464 354° North 307 353 14,800  Level Denver Center
Mon 09:41:00 PM 40.5873 -104.9035 348° North  Level FlightAware Approximate
Mon 09:41:28 PM 40.2419 -104.4997 333° Northwest 304 350 16,600  Level Denver Center
Mon 09:42:31 PM 40.3475 -104.5686 334° Northwest 350 403 17,200 1,008 Climbing Denver Center
Mon 09:43:33 PM 40.4367 -104.6247 334° Northwest 354 407 18,700 1,511 Climbing Denver Center
Mon 09:44:46 PM 40.5314 -104.6872 333° Northwest 355 409 20,600 1,500 Climbing Denver Center
Mon 09:45:49 PM 40.6378 -104.7572 333° Northwest 351 404 22,100 1,200 Climbing Denver Center
Mon 09:46:51 PM 40.7297 -104.8164 334° Northwest 366 421 23,100 1,016 Climbing Denver Center
Mon 09:47:53 PM 40.8264 -104.8678 338° Northwest 355 409 24,200 927 Climbing Denver Center
Mon 09:48:54 PM 40.9219 -104.9125 341° North 373 429 25,000 780 Climbing Denver Center
Mon 09:49:56 PM 41.0283 -104.9867 332° Northwest 391 450 25,800 677 Climbing Denver Center
Mon 09:50:58 PM 41.1103 -105.0717 322° Northwest 394 453 26,400 629 Climbing Denver Center
Mon 09:52:00 PM 41.2067 -105.1772 321° Northwest 399 459 27,100 581 Climbing Denver Center
Mon 09:53:02 PM 41.2900 -105.2667 321° Northwest 399 459 27,600 484 Climbing Denver Center
Mon 09:54:04 PM 41.3750 -105.3564 322° Northwest 404 465 28,100 532 Climbing Denver Center
Mon 09:55:06 PM 41.4756 -105.4681 320° Northwest 413 475 28,700 484 Climbing Denver Center
Mon 09:56:08 PM 41.5614 -105.5614 321° Northwest 415 478 29,100 484 Climbing Denver Center
Mon 09:57:10 PM 41.6614 -105.6728 320° Northwest 416 479 29,700 537 Climbing Denver Center
Mon 09:58:11 PM 41.7450 -105.7636 321° Northwest 410 472 30,200 634 Climbing Denver Center
Mon 09:59:13 PM 41.8414 -105.8711 320° Northwest 406 467 31,000 677 Climbing Denver Center
Mon 10:00:15 PM 41.9239 -105.9622 321° Northwest 399 459 31,600 484 Climbing Denver Center
Mon 10:01:17 PM 42.0069 -106.0536 321° Northwest 399 459 32,000 176 Climbing Denver Center
Mon 10:02:31 PM 42.1031 -106.1628 320° Northwest 404 465 32,000  Level Denver Center
Mon 10:03:33 PM 42.2181 -106.2917 320° Northwest 420 483 32,000  Level Denver Center
Mon 10:04:35 PM 42.3050 -106.3894 320° Northwest 424 488 32,000  Level Denver Center
Mon 10:05:36 PM 42.3908 -106.4864 320° Northwest 422 486 32,000  Level Denver Center
Mon 10:06:38 PM 42.4906 -106.6008 320° Northwest 420 483 32,000  Level Denver Center
Mon 10:07:40 PM 42.5753 -106.6967 320° Northwest 417 480 32,000  Level Denver Center
Mon 10:08:42 PM 42.6731 -106.8092 320° Northwest 414 476 32,000  Level Denver Center
Mon 10:09:43 PM 42.7564 -106.9053 320° Northwest 412 474 32,000  Level Denver Center
Mon 10:10:45 PM 42.8517 -107.0167 319° Northwest 406 467 32,000  Level Denver Center
Mon 10:11:47 PM 42.9353 -107.1114 320° Northwest 409 471 32,000  Level Denver Center
Mon 10:13:00 PM 43.0167 -107.2086 319° Northwest 408 470 32,000  Level Denver Center
Mon 10:14:02 PM 43.1294 -107.3392 320° Northwest 409 471 32,000  Level Denver Center
Mon 10:15:04 PM 43.2119 -107.4378 319° Northwest 412 474 32,000  Level Denver Center
Mon 10:15:55 PM 43.2950 -107.5364 319° Northwest 413 475 32,000  Level Salt Lake Center
Mon 10:16:57 PM 43.3786 -107.6356 319° Northwest 415 478 32,000  Level Salt Lake Center
Mon 10:17:58 PM 43.4758 -107.7506 319° Northwest 412 474 32,000  Level Salt Lake Center
Mon 10:19:00 PM 43.5583 -107.8506 319° Northwest 411 473 32,000  Level Salt Lake Center
Mon 10:20:01 PM 43.6417 -107.9481 320° Northwest 410 472 32,000 -1,317 Level Salt Lake Center
Mon 10:21:03 PM 43.7386 -108.0647 319° Northwest 413 475 29,300 -2,732 Descending Salt Lake Center
Mon 10:22:04 PM 43.8369 -108.1442 330° Northwest 428 493 26,400 -2,878 Descending Salt Lake Center
Mon 10:23:06 PM 43.9550 -108.2275 333° Northwest 426 490 23,400 -2,585 Descending Salt Lake Center
Mon 10:24:07 PM 44.0519 -108.2939 334° Northwest 411 473 21,100 -2,341 Descending Salt Lake Center
Mon 10:25:09 PM 44.1408 -108.3581 333° Northwest 387 445 18,600 -2,683 Descending Salt Lake Center
Mon 10:26:10 PM 44.2442 -108.4322 333° Northwest 378 435 15,600 -2,732 Descending Salt Lake Center
Mon 10:27:12 PM 44.3331 -108.4950 333° Northwest 375 432 13,000 -2,244 Descending Salt Lake Center
Mon 10:28:13 PM 44.4317 -108.5653 333° Northwest 366 421 11,000 -1,561 Descending Salt Lake Center
Mon 10:29:15 PM 44.5008 -108.6158 332° Northwest 323 372 9,800 -780 Descending Salt Lake Center
Mon 10:30:16 PM 44.5675 -108.6625 333° Northwest 296 341 9,400 -683 Descending Salt Lake Center
Mon 10:31:18 PM 44.6258 -108.7219 324° Northwest 256 295 8,400 -823 Descending Salt Lake Center
Mon 10:32:20 PM 44.6536 -108.7728 308° West 210 242 7,700 -439 Descending Salt Lake Center
Mon 10:33:21 PM 44.6281 -108.8325 239° Southwest 173 199 7,500 -49 Descending Salt Lake Center
Mon 10:34:23 PM 44.6025 -108.8797 233° Southwest 164 189 7,600 -293 Climbing Salt Lake Center
Mon 10:35:24 PM 44.5800 -108.9222 233° Southwest 153 176 6,900 -732 Descending Salt Lake Center
Mon 10:36:26 PM 44.5533 -108.9694 232° Southwest 143 165 6,100 -774 Descending Salt Lake Center

Login

Don't have an account? Register now (free) for customized features, flight alerts, and more!